sensor_id;sensor_type;location;lat;lon;timestamp;P1;durP1;ratioP1;P2;durP2;ratioP2
20417;SDS011;10368;51.436;6.774;2023-03-15T00:01:07;9.53;;;4.57;;
20417;SDS011;10368;51.436;6.774;2023-03-15T00:03:36;16.30;;;4.80;;
20417;SDS011;10368;51.436;6.774;2023-03-15T00:06:05;10.20;;;3.40;;
20417;SDS011;10368;51.436;6.774;2023-03-15T00:08:32;16.53;;;3.77;;
20417;SDS011;10368;51.436;6.774;2023-03-15T00:10:59;9.30;;;3.30;;
20417;SDS011;10368;51.436;6.774;2023-03-15T00:13:26;8.33;;;2.90;;
20417;SDS011;10368;51.436;6.774;2023-03-15T00:15:55;9.00;;;3.67;;
20417;SDS011;10368;51.436;6.774;2023-03-15T00:18:23;13.87;;;3.27;;
20417;SDS011;10368;51.436;6.774;2023-03-15T00:20:50;6.63;;;3.57;;
20417;SDS011;10368;51.436;6.774;2023-03-15T00:23:17;6.13;;;2.87;;
20417;SDS011;10368;51.436;6.774;2023-03-15T00:25:45;6.30;;;2.53;;
20417;SDS011;10368;51.436;6.774;2023-03-15T00:28:13;5.57;;;2.40;;
20417;SDS011;10368;51.436;6.774;2023-03-15T00:30:40;6.33;;;3.07;;
20417;SDS011;10368;51.436;6.774;2023-03-15T00:33:07;4.20;;;2.53;;
20417;SDS011;10368;51.436;6.774;2023-03-15T00:35:39;11.13;;;3.93;;
20417;SDS011;10368;51.436;6.774;2023-03-15T00:38:06;8.73;;;3.83;;
20417;SDS011;10368;51.436;6.774;2023-03-15T00:40:34;10.17;;;4.87;;
20417;SDS011;10368;51.436;6.774;2023-03-15T00:43:02;7.73;;;4.93;;
20417;SDS011;10368;51.436;6.774;2023-03-15T00:45:32;13.83;;;6.60;;
20417;SDS011;10368;51.436;6.774;2023-03-15T00:47:59;12.10;;;6.00;;
20417;SDS011;10368;51.436;6.774;2023-03-15T00:50:27;8.03;;;5.40;;
20417;SDS011;10368;51.436;6.774;2023-03-15T00:52:54;11.53;;;6.10;;
20417;SDS011;10368;51.436;6.774;2023-03-15T00:55:21;13.53;;;6.77;;
20417;SDS011;10368;51.436;6.774;2023-03-15T00:57:49;10.93;;;6.60;;
20417;SDS011;10368;51.436;6.774;2023-03-15T01:00:17;15.27;;;6.67;;
20417;SDS011;10368;51.436;6.774;2023-03-15T01:02:46;9.83;;;5.90;;
20417;SDS011;10368;51.436;6.774;2023-03-15T01:05:14;8.17;;;5.40;;
20417;SDS011;10368;51.436;6.774;2023-03-15T01:07:41;6.87;;;5.93;;
20417;SDS011;10368;51.436;6.774;2023-03-15T01:10:11;13.33;;;6.63;;
20417;SDS011;10368;51.436;6.774;2023-03-15T01:12:39;6.73;;;5.90;;
20417;SDS011;10368;51.436;6.774;2023-03-15T01:15:07;8.57;;;6.10;;
20417;SDS011;10368;51.436;6.774;2023-03-15T01:17:34;14.07;;;8.97;;
20417;SDS011;10368;51.436;6.774;2023-03-15T01:20:02;11.63;;;9.40;;
20417;SDS011;10368;51.436;6.774;2023-03-15T01:22:30;10.90;;;8.63;;
20417;SDS011;10368;51.436;6.774;2023-03-15T01:24:58;11.50;;;8.27;;
20417;SDS011;10368;51.436;6.774;2023-03-15T01:27:25;10.90;;;6.90;;
20417;SDS011;10368;51.436;6.774;2023-03-15T01:29:53;10.37;;;6.70;;
20417;SDS011;10368;51.436;6.774;2023-03-15T01:32:20;8.67;;;6.47;;
20417;SDS011;10368;51.436;6.774;2023-03-15T01:34:47;11.43;;;8.17;;
20417;SDS011;10368;51.436;6.774;2023-03-15T01:37:14;23.97;;;13.73;;
20417;SDS011;10368;51.436;6.774;2023-03-15T01:39:42;26.70;;;14.40;;
20417;SDS011;10368;51.436;6.774;2023-03-15T01:42:09;18.37;;;11.67;;
20417;SDS011;10368;51.436;6.774;2023-03-15T01:45:48;24.23;;;13.10;;
20417;SDS011;10368;51.436;6.774;2023-03-15T01:47:32;19.50;;;9.87;;
20417;SDS011;10368;51.436;6.774;2023-03-15T01:50:09;22.37;;;12.27;;
20417;SDS011;10368;51.436;6.774;2023-03-15T01:52:37;18.47;;;9.47;;
20417;SDS011;10368;51.436;6.774;2023-03-15T01:55:11;15.13;;;7.67;;
20417;SDS011;10368;51.436;6.774;2023-03-15T01:57:58;21.30;;;7.80;;
20417;SDS011;10368;51.436;6.774;2023-03-15T02:00:25;18.77;;;9.23;;
20417;SDS011;10368;51.436;6.774;2023-03-15T02:02:59;13.33;;;6.27;;
20417;SDS011;10368;51.436;6.774;2023-03-15T02:05:30;6.70;;;4.03;;
20417;SDS011;10368;51.436;6.774;2023-03-15T02:08:00;10.27;;;4.43;;
20417;SDS011;10368;51.436;6.774;2023-03-15T02:10:33;5.93;;;3.10;;
20417;SDS011;10368;51.436;6.774;2023-03-15T02:13:02;7.00;;;3.17;;
20417;SDS011;10368;51.436;6.774;2023-03-15T02:15:29;7.23;;;3.50;;
20417;SDS011;10368;51.436;6.774;2023-03-15T02:17:57;4.30;;;3.57;;
20417;SDS011;10368;51.436;6.774;2023-03-15T02:20:39;6.63;;;3.20;;
20417;SDS011;10368;51.436;6.774;2023-03-15T02:23:08;7.90;;;3.90;;
20417;SDS011;10368;51.436;6.774;2023-03-15T02:28:11;5.57;;;4.10;;
20417;SDS011;10368;51.436;6.774;2023-03-15T02:30:39;6.33;;;4.13;;
20417;SDS011;10368;51.436;6.774;2023-03-15T02:33:08;6.43;;;4.17;;
20417;SDS011;10368;51.436;6.774;2023-03-15T02:35:36;8.43;;;5.70;;
20417;SDS011;10368;51.436;6.774;2023-03-15T02:38:03;10.03;;;6.07;;
20417;SDS011;10368;51.436;6.774;2023-03-15T02:40:31;12.03;;;6.47;;
20417;SDS011;10368;51.436;6.774;2023-03-15T02:42:59;16.97;;;7.43;;
20417;SDS011;10368;51.436;6.774;2023-03-15T02:45:29;11.90;;;8.03;;
20417;SDS011;10368;51.436;6.774;2023-03-15T02:47:57;9.93;;;7.60;;
20417;SDS011;10368;51.436;6.774;2023-03-15T02:50:24;12.07;;;8.83;;
20417;SDS011;10368;51.436;6.774;2023-03-15T02:52:52;11.00;;;8.80;;
20417;SDS011;10368;51.436;6.774;2023-03-15T02:55:19;14.63;;;10.43;;
20417;SDS011;10368;51.436;6.774;2023-03-15T02:57:47;16.97;;;10.77;;
20417;SDS011;10368;51.436;6.774;2023-03-15T03:00:14;16.83;;;11.90;;
20417;SDS011;10368;51.436;6.774;2023-03-15T03:02:45;18.93;;;12.77;;
20417;SDS011;10368;51.436;6.774;2023-03-15T03:05:14;17.63;;;12.73;;
20417;SDS011;10368;51.436;6.774;2023-03-15T03:07:42;12.37;;;10.07;;
20417;SDS011;10368;51.436;6.774;2023-03-15T03:10:13;13.00;;;8.57;;
20417;SDS011;10368;51.436;6.774;2023-03-15T03:12:41;7.60;;;6.33;;
20417;SDS011;10368;51.436;6.774;2023-03-15T03:15:08;3.13;;;2.83;;
20417;SDS011;10368;51.436;6.774;2023-03-15T03:17:36;4.93;;;3.20;;
20417;SDS011;10368;51.436;6.774;2023-03-15T03:20:04;3.83;;;3.33;;
20417;SDS011;10368;51.436;6.774;2023-03-15T03:22:33;3.40;;;2.60;;
20417;SDS011;10368;51.436;6.774;2023-03-15T03:25:00;4.17;;;2.87;;
20417;SDS011;10368;51.436;6.774;2023-03-15T03:27:28;4.30;;;2.23;;
20417;SDS011;10368;51.436;6.774;2023-03-15T03:29:57;3.90;;;2.20;;
20417;SDS011;10368;51.436;6.774;2023-03-15T03:32:24;3.03;;;2.30;;
20417;SDS011;10368;51.436;6.774;2023-03-15T03:34:52;2.57;;;2.07;;
20417;SDS011;10368;51.436;6.774;2023-03-15T03:37:19;4.80;;;2.70;;
20417;SDS011;10368;51.436;6.774;2023-03-15T03:39:47;6.20;;;3.47;;
20417;SDS011;10368;51.436;6.774;2023-03-15T03:42:14;5.00;;;4.40;;
20417;SDS011;10368;51.436;6.774;2023-03-15T03:44:41;4.77;;;3.57;;
20417;SDS011;10368;51.436;6.774;2023-03-15T03:47:08;6.57;;;4.63;;
20417;SDS011;10368;51.436;6.774;2023-03-15T03:49:35;6.27;;;5.27;;
20417;SDS011;10368;51.436;6.774;2023-03-15T03:52:03;6.63;;;5.10;;
20417;SDS011;10368;51.436;6.774;2023-03-15T03:54:30;5.73;;;5.03;;
20417;SDS011;10368;51.436;6.774;2023-03-15T03:56:57;11.40;;;5.93;;
20417;SDS011;10368;51.436;6.774;2023-03-15T03:59:24;6.27;;;5.37;;
20417;SDS011;10368;51.436;6.774;2023-03-15T04:01:51;7.33;;;5.70;;
20417;SDS011;10368;51.436;6.774;2023-03-15T04:04:19;10.17;;;5.83;;
20417;SDS011;10368;51.436;6.774;2023-03-15T04:06:46;6.83;;;5.30;;
20417;SDS011;10368;51.436;6.774;2023-03-15T04:09:16;7.27;;;4.90;;
20417;SDS011;10368;51.436;6.774;2023-03-15T04:11:44;8.03;;;5.30;;
20417;SDS011;10368;51.436;6.774;2023-03-15T04:14:11;6.97;;;5.37;;
20417;SDS011;10368;51.436;6.774;2023-03-15T04:16:39;7.47;;;5.00;;
20417;SDS011;10368;51.436;6.774;2023-03-15T04:19:07;7.43;;;5.23;;
20417;SDS011;10368;51.436;6.774;2023-03-15T04:21:34;8.13;;;5.67;;
20417;SDS011;10368;51.436;6.774;2023-03-15T04:24:02;8.57;;;5.80;;
20417;SDS011;10368;51.436;6.774;2023-03-15T04:26:29;8.77;;;6.23;;
20417;SDS011;10368;51.436;6.774;2023-03-15T04:28:57;9.77;;;7.00;;
20417;SDS011;10368;51.436;6.774;2023-03-15T04:31:24;8.03;;;6.20;;
20417;SDS011;10368;51.436;6.774;2023-03-15T04:33:53;10.37;;;6.73;;
20417;SDS011;10368;51.436;6.774;2023-03-15T04:36:23;11.33;;;7.10;;
20417;SDS011;10368;51.436;6.774;2023-03-15T04:38:50;10.07;;;6.37;;
20417;SDS011;10368;51.436;6.774;2023-03-15T04:41:19;10.40;;;7.40;;
20417;SDS011;10368;51.436;6.774;2023-03-15T04:43:46;14.80;;;7.80;;
20417;SDS011;10368;51.436;6.774;2023-03-15T04:46:14;12.07;;;8.10;;
20417;SDS011;10368;51.436;6.774;2023-03-15T04:48:41;21.27;;;9.53;;
20417;SDS011;10368;51.436;6.774;2023-03-15T04:51:08;20.83;;;9.83;;
20417;SDS011;10368;51.436;6.774;2023-03-15T04:53:35;19.67;;;9.93;;
20417;SDS011;10368;51.436;6.774;2023-03-15T04:56:05;16.77;;;10.20;;
20417;SDS011;10368;51.436;6.774;2023-03-15T04:58:32;19.63;;;9.83;;
20417;SDS011;10368;51.436;6.774;2023-03-15T05:00:59;16.53;;;9.60;;
20417;SDS011;10368;51.436;6.774;2023-03-15T05:03:26;15.47;;;9.93;;
20417;SDS011;10368;51.436;6.774;2023-03-15T05:05:53;17.77;;;10.57;;
20417;SDS011;10368;51.436;6.774;2023-03-15T05:08:20;13.20;;;9.43;;
20417;SDS011;10368;51.436;6.774;2023-03-15T05:10:48;16.70;;;10.23;;
20417;SDS011;10368;51.436;6.774;2023-03-15T05:13:15;13.97;;;9.57;;
20417;SDS011;10368;51.436;6.774;2023-03-15T05:15:44;14.50;;;10.40;;
20417;SDS011;10368;51.436;6.774;2023-03-15T05:18:11;15.07;;;10.93;;
20417;SDS011;10368;51.436;6.774;2023-03-15T05:20:39;15.70;;;10.13;;
20417;SDS011;10368;51.436;6.774;2023-03-15T05:23:06;16.60;;;10.33;;
20417;SDS011;10368;51.436;6.774;2023-03-15T05:25:33;20.00;;;11.90;;
20417;SDS011;10368;51.436;6.774;2023-03-15T05:28:04;16.67;;;10.33;;
20417;SDS011;10368;51.436;6.774;2023-03-15T05:30:31;19.93;;;11.10;;
20417;SDS011;10368;51.436;6.774;2023-03-15T05:32:59;18.70;;;11.37;;
20417;SDS011;10368;51.436;6.774;2023-03-15T05:35:29;17.73;;;11.23;;
20417;SDS011;10368;51.436;6.774;2023-03-15T05:37:57;17.93;;;12.50;;
20417;SDS011;10368;51.436;6.774;2023-03-15T05:40:24;19.97;;;12.53;;
20417;SDS011;10368;51.436;6.774;2023-03-15T05:42:51;20.03;;;11.97;;
20417;SDS011;10368;51.436;6.774;2023-03-15T05:45:20;20.47;;;13.13;;
20417;SDS011;10368;51.436;6.774;2023-03-15T05:47:47;19.17;;;11.80;;
20417;SDS011;10368;51.436;6.774;2023-03-15T05:50:15;19.60;;;13.10;;
20417;SDS011;10368;51.436;6.774;2023-03-15T05:52:42;23.43;;;12.80;;
20417;SDS011;10368;51.436;6.774;2023-03-15T05:55:09;18.40;;;12.90;;
20417;SDS011;10368;51.436;6.774;2023-03-15T05:57:37;22.70;;;14.07;;
20417;SDS011;10368;51.436;6.774;2023-03-15T06:00:04;23.40;;;13.83;;
20417;SDS011;10368;51.436;6.774;2023-03-15T06:02:32;22.73;;;14.40;;
20417;SDS011;10368;51.436;6.774;2023-03-15T06:04:59;20.17;;;13.20;;
20417;SDS011;10368;51.436;6.774;2023-03-15T06:07:26;22.40;;;13.17;;
20417;SDS011;10368;51.436;6.774;2023-03-15T06:09:53;23.83;;;13.43;;
20417;SDS011;10368;51.436;6.774;2023-03-15T06:12:21;24.73;;;14.90;;
20417;SDS011;10368;51.436;6.774;2023-03-15T06:14:48;19.00;;;13.13;;
20417;SDS011;10368;51.436;6.774;2023-03-15T06:17:15;23.43;;;13.80;;
20417;SDS011;10368;51.436;6.774;2023-03-15T06:19:42;28.63;;;14.23;;
20417;SDS011;10368;51.436;6.774;2023-03-15T06:22:10;22.70;;;13.77;;
20417;SDS011;10368;51.436;6.774;2023-03-15T06:24:45;24.63;;;14.37;;
20417;SDS011;10368;51.436;6.774;2023-03-15T06:27:12;23.17;;;14.37;;
20417;SDS011;10368;51.436;6.774;2023-03-15T06:29:39;26.30;;;14.73;;
20417;SDS011;10368;51.436;6.774;2023-03-15T06:32:06;25.03;;;14.50;;
20417;SDS011;10368;51.436;6.774;2023-03-15T06:34:34;26.23;;;13.77;;
20417;SDS011;10368;51.436;6.774;2023-03-15T06:37:01;24.17;;;14.67;;
20417;SDS011;10368;51.436;6.774;2023-03-15T06:39:28;24.77;;;13.73;;
20417;SDS011;10368;51.436;6.774;2023-03-15T06:41:55;19.33;;;12.50;;
20417;SDS011;10368;51.436;6.774;2023-03-15T06:44:25;24.77;;;14.13;;
20417;SDS011;10368;51.436;6.774;2023-03-15T06:46:52;20.40;;;12.57;;
20417;SDS011;10368;51.436;6.774;2023-03-15T06:49:19;20.83;;;13.43;;
20417;SDS011;10368;51.436;6.774;2023-03-15T06:51:46;19.17;;;13.00;;
20417;SDS011;10368;51.436;6.774;2023-03-15T06:54:13;19.30;;;12.70;;
20417;SDS011;10368;51.436;6.774;2023-03-15T06:56:41;20.30;;;12.37;;
20417;SDS011;10368;51.436;6.774;2023-03-15T06:59:08;24.43;;;13.47;;
20417;SDS011;10368;51.436;6.774;2023-03-15T07:01:36;22.20;;;12.87;;
20417;SDS011;10368;51.436;6.774;2023-03-15T07:04:03;19.83;;;13.23;;
20417;SDS011;10368;51.436;6.774;2023-03-15T07:06:33;19.20;;;11.73;;
20417;SDS011;10368;51.436;6.774;2023-03-15T07:09:01;22.53;;;12.30;;
20417;SDS011;10368;51.436;6.774;2023-03-15T07:11:28;19.20;;;10.60;;
20417;SDS011;10368;51.436;6.774;2023-03-15T07:13:55;15.90;;;10.40;;
20417;SDS011;10368;51.436;6.774;2023-03-15T07:16:24;18.73;;;11.20;;
20417;SDS011;10368;51.436;6.774;2023-03-15T07:18:51;16.87;;;9.67;;
20417;SDS011;10368;51.436;6.774;2023-03-15T07:21:20;15.03;;;10.77;;
20417;SDS011;10368;51.436;6.774;2023-03-15T07:23:48;16.00;;;10.17;;
20417;SDS011;10368;51.436;6.774;2023-03-15T07:26:15;16.67;;;10.37;;
20417;SDS011;10368;51.436;6.774;2023-03-15T07:28:42;14.60;;;9.13;;
20417;SDS011;10368;51.436;6.774;2023-03-15T07:31:10;19.17;;;9.03;;
20417;SDS011;10368;51.436;6.774;2023-03-15T07:33:37;14.53;;;9.60;;
20417;SDS011;10368;51.436;6.774;2023-03-15T07:36:06;15.70;;;9.37;;
20417;SDS011;10368;51.436;6.774;2023-03-15T07:38:34;15.20;;;9.37;;
20417;SDS011;10368;51.436;6.774;2023-03-15T07:41:02;14.67;;;9.43;;
20417;SDS011;10368;51.436;6.774;2023-03-15T07:43:29;20.47;;;10.90;;
20417;SDS011;10368;51.436;6.774;2023-03-15T07:45:57;19.20;;;9.47;;
20417;SDS011;10368;51.436;6.774;2023-03-15T07:48:24;15.87;;;10.67;;
20417;SDS011;10368;51.436;6.774;2023-03-15T07:50:51;20.73;;;10.10;;
20417;SDS011;10368;51.436;6.774;2023-03-15T07:53:18;17.50;;;11.10;;
20417;SDS011;10368;51.436;6.774;2023-03-15T07:55:46;22.93;;;10.43;;
20417;SDS011;10368;51.436;6.774;2023-03-15T07:58:13;16.80;;;11.53;;
20417;SDS011;10368;51.436;6.774;2023-03-15T08:00:41;15.13;;;10.70;;
20417;SDS011;10368;51.436;6.774;2023-03-15T08:03:08;21.77;;;12.23;;
20417;SDS011;10368;51.436;6.774;2023-03-15T08:05:36;18.73;;;11.23;;
20417;SDS011;10368;51.436;6.774;2023-03-15T08:08:03;16.80;;;9.47;;
20417;SDS011;10368;51.436;6.774;2023-03-15T08:10:30;17.93;;;9.97;;
20417;SDS011;10368;51.436;6.774;2023-03-15T08:12:58;18.37;;;11.17;;
20417;SDS011;10368;51.436;6.774;2023-03-15T08:15:25;19.13;;;10.10;;
20417;SDS011;10368;51.436;6.774;2023-03-15T08:17:52;12.40;;;9.17;;
20417;SDS011;10368;51.436;6.774;2023-03-15T08:20:19;16.40;;;10.60;;
20417;SDS011;10368;51.436;6.774;2023-03-15T08:22:48;15.60;;;10.00;;
20417;SDS011;10368;51.436;6.774;2023-03-15T08:25:16;13.20;;;9.43;;
20417;SDS011;10368;51.436;6.774;2023-03-15T08:27:43;14.10;;;10.07;;
20417;SDS011;10368;51.436;6.774;2023-03-15T08:30:11;18.93;;;12.27;;
20417;SDS011;10368;51.436;6.774;2023-03-15T08:32:39;18.43;;;10.67;;
20417;SDS011;10368;51.436;6.774;2023-03-15T08:35:07;17.13;;;10.83;;
20417;SDS011;10368;51.436;6.774;2023-03-15T08:37:35;26.40;;;11.53;;
20417;SDS011;10368;51.436;6.774;2023-03-15T08:40:02;15.27;;;9.30;;
20417;SDS011;10368;51.436;6.774;2023-03-15T08:42:36;15.20;;;9.73;;
20417;SDS011;10368;51.436;6.774;2023-03-15T08:45:04;16.67;;;10.77;;
20417;SDS011;10368;51.436;6.774;2023-03-15T08:47:32;33.03;;;13.47;;
20417;SDS011;10368;51.436;6.774;2023-03-15T08:50:01;34.60;;;13.93;;
20417;SDS011;10368;51.436;6.774;2023-03-15T08:52:30;42.90;;;16.30;;
20417;SDS011;10368;51.436;6.774;2023-03-15T08:54:58;40.53;;;12.80;;
20417;SDS011;10368;51.436;6.774;2023-03-15T08:57:25;33.27;;;13.63;;
20417;SDS011;10368;51.436;6.774;2023-03-15T08:59:54;59.50;;;14.23;;
20417;SDS011;10368;51.436;6.774;2023-03-15T09:02:22;22.43;;;9.53;;
20417;SDS011;10368;51.436;6.774;2023-03-15T09:04:50;16.63;;;8.47;;
20417;SDS011;10368;51.436;6.774;2023-03-15T09:07:18;15.53;;;9.43;;
20417;SDS011;10368;51.436;6.774;2023-03-15T09:09:47;20.93;;;8.63;;
20417;SDS011;10368;51.436;6.774;2023-03-15T09:12:15;10.93;;;7.50;;
20417;SDS011;10368;51.436;6.774;2023-03-15T09:14:42;17.20;;;7.77;;
20417;SDS011;10368;51.436;6.774;2023-03-15T09:17:09;14.23;;;9.60;;
20417;SDS011;10368;51.436;6.774;2023-03-15T09:19:37;17.07;;;9.17;;
20417;SDS011;10368;51.436;6.774;2023-03-15T09:22:04;13.53;;;7.97;;
20417;SDS011;10368;51.436;6.774;2023-03-15T09:24:49;12.00;;;8.30;;
20417;SDS011;10368;51.436;6.774;2023-03-15T09:27:17;14.30;;;8.43;;
20417;SDS011;10368;51.436;6.774;2023-03-15T09:29:45;12.37;;;7.47;;
20417;SDS011;10368;51.436;6.774;2023-03-15T09:32:12;14.67;;;7.47;;
20417;SDS011;10368;51.436;6.774;2023-03-15T09:34:40;8.23;;;6.00;;
20417;SDS011;10368;51.436;6.774;2023-03-15T09:37:07;10.17;;;6.80;;
20417;SDS011;10368;51.436;6.774;2023-03-15T09:39:35;11.73;;;8.43;;
20417;SDS011;10368;51.436;6.774;2023-03-15T09:42:02;13.17;;;8.73;;
20417;SDS011;10368;51.436;6.774;2023-03-15T09:51:55;37.57;;;20.17;;
20417;SDS011;10368;51.436;6.774;2023-03-15T09:54:27;10.83;;;7.80;;
20417;SDS011;10368;51.436;6.774;2023-03-15T09:56:58;13.80;;;7.20;;
20417;SDS011;10368;51.436;6.774;2023-03-15T09:59:34;12.00;;;7.23;;
20417;SDS011;10368;51.436;6.774;2023-03-15T10:02:03;11.83;;;7.00;;
20417;SDS011;10368;51.436;6.774;2023-03-15T10:04:39;10.77;;;6.97;;
20417;SDS011;10368;51.436;6.774;2023-03-15T10:07:11;11.40;;;6.33;;
20417;SDS011;10368;51.436;6.774;2023-03-15T10:09:39;10.87;;;5.97;;
20417;SDS011;10368;51.436;6.774;2023-03-15T10:12:10;10.07;;;6.00;;
20417;SDS011;10368;51.436;6.774;2023-03-15T10:20:12;14.43;;;6.47;;
20417;SDS011;10368;51.436;6.774;2023-03-15T10:22:41;7.67;;;5.03;;
20417;SDS011;10368;51.436;6.774;2023-03-15T10:27:40;34.07;;;15.43;;
20417;SDS011;10368;51.436;6.774;2023-03-15T10:30:16;8.70;;;4.63;;
20417;SDS011;10368;51.436;6.774;2023-03-15T10:32:44;14.30;;;6.27;;
20417;SDS011;10368;51.436;6.774;2023-03-15T10:35:14;14.10;;;5.07;;
20417;SDS011;10368;51.436;6.774;2023-03-15T10:37:42;9.07;;;4.77;;
20417;SDS011;10368;51.436;6.774;2023-03-15T10:40:10;8.10;;;3.60;;
20417;SDS011;10368;51.436;6.774;2023-03-15T10:42:42;10.20;;;4.10;;
20417;SDS011;10368;51.436;6.774;2023-03-15T10:47:41;10.27;;;3.87;;
20417;SDS011;10368;51.436;6.774;2023-03-15T10:50:26;10.63;;;4.33;;
20417;SDS011;10368;51.436;6.774;2023-03-15T10:52:54;8.10;;;5.13;;
20417;SDS011;10368;51.436;6.774;2023-03-15T10:55:29;10.23;;;5.33;;
20417;SDS011;10368;51.436;6.774;2023-03-15T10:57:58;10.53;;;4.20;;
20417;SDS011;10368;51.436;6.774;2023-03-15T11:00:30;10.23;;;6.20;;
20417;SDS011;10368;51.436;6.774;2023-03-15T11:05:28;7.70;;;4.78;;
20417;SDS011;10368;51.436;6.774;2023-03-15T11:07:57;3.13;;;2.15;;
20417;SDS011;10368;51.436;6.774;2023-03-15T11:10:25;5.00;;;2.65;;
20417;SDS011;10368;51.436;6.774;2023-03-15T11:13:13;5.63;;;2.67;;
20417;SDS011;10368;51.436;6.774;2023-03-15T11:18:42;3.22;;;2.13;;
20417;SDS011;10368;51.436;6.774;2023-03-15T11:21:11;7.85;;;2.80;;
20417;SDS011;10368;51.436;6.774;2023-03-15T11:23:43;6.45;;;2.30;;
20417;SDS011;10368;51.436;6.774;2023-03-15T11:26:20;4.80;;;2.65;;
20417;SDS011;10368;51.436;6.774;2023-03-15T11:28:59;5.50;;;2.10;;
20417;SDS011;10368;51.436;6.774;2023-03-15T11:31:27;3.67;;;1.80;;
20417;SDS011;10368;51.436;6.774;2023-03-15T11:33:59;5.15;;;2.47;;
20417;SDS011;10368;51.436;6.774;2023-03-15T11:36:29;4.07;;;2.40;;
20417;SDS011;10368;51.436;6.774;2023-03-15T11:38:58;3.35;;;2.08;;
20417;SDS011;10368;51.436;6.774;2023-03-15T11:42:04;2.67;;;2.08;;
20417;SDS011;10368;51.436;6.774;2023-03-15T11:47:00;9.35;;;4.00;;
20417;SDS011;10368;51.436;6.774;2023-03-15T11:52:15;6.38;;;2.42;;
20417;SDS011;10368;51.436;6.774;2023-03-15T11:54:43;6.43;;;2.53;;
20417;SDS011;10368;51.436;6.774;2023-03-15T12:00:14;7.72;;;2.70;;
20417;SDS011;10368;51.436;6.774;2023-03-15T12:02:53;6.07;;;2.20;;
20417;SDS011;10368;51.436;6.774;2023-03-15T12:08:23;5.75;;;2.05;;
20417;SDS011;10368;51.436;6.774;2023-03-15T12:11:39;3.60;;;1.95;;
20417;SDS011;10368;51.436;6.774;2023-03-15T12:16:30;2.97;;;1.65;;
20417;SDS011;10368;51.436;6.774;2023-03-15T12:19:00;4.03;;;1.80;;
20417;SDS011;10368;51.436;6.774;2023-03-15T12:21:37;2.88;;;1.83;;
20417;SDS011;10368;51.436;6.774;2023-03-15T12:24:06;5.13;;;1.90;;
20417;SDS011;10368;51.436;6.774;2023-03-15T12:26:41;3.17;;;1.35;;
20417;SDS011;10368;51.436;6.774;2023-03-15T12:29:20;5.35;;;3.03;;
20417;SDS011;10368;51.436;6.774;2023-03-15T12:34:29;3.80;;;2.28;;
20417;SDS011;10368;51.436;6.774;2023-03-15T12:37:06;4.80;;;1.92;;
20417;SDS011;10368;51.436;6.774;2023-03-15T12:39:45;8.45;;;2.08;;
20417;SDS011;10368;51.436;6.774;2023-03-15T12:52:59;4.15;;;2.10;;
20417;SDS011;10368;51.436;6.774;2023-03-15T12:55:27;7.68;;;1.88;;
20417;SDS011;10368;51.436;6.774;2023-03-15T12:57:57;9.48;;;2.05;;
20417;SDS011;10368;51.436;6.774;2023-03-15T13:00:26;2.60;;;1.60;;
20417;SDS011;10368;51.436;6.774;2023-03-15T13:05:23;4.82;;;1.35;;
20417;SDS011;10368;51.436;6.774;2023-03-15T13:08:09;3.20;;;1.80;;
20417;SDS011;10368;51.436;6.774;2023-03-15T13:19:01;3.17;;;1.60;;
20417;SDS011;10368;51.436;6.774;2023-03-15T13:21:35;3.17;;;1.75;;
20417;SDS011;10368;51.436;6.774;2023-03-15T13:24:03;2.97;;;1.40;;
20417;SDS011;10368;51.436;6.774;2023-03-15T13:26:54;2.92;;;1.83;;
20417;SDS011;10368;51.436;6.774;2023-03-15T13:29:21;4.50;;;1.63;;
20417;SDS011;10368;51.436;6.774;2023-03-15T13:34:47;4.07;;;1.75;;
20417;SDS011;10368;51.436;6.774;2023-03-15T13:37:22;3.63;;;1.45;;
20417;SDS011;10368;51.436;6.774;2023-03-15T13:42:22;2.30;;;1.13;;
20417;SDS011;10368;51.436;6.774;2023-03-15T13:47:35;6.80;;;1.90;;
20417;SDS011;10368;51.436;6.774;2023-03-15T13:50:03;4.55;;;1.42;;
20417;SDS011;10368;51.436;6.774;2023-03-15T13:52:31;2.58;;;1.20;;
20417;SDS011;10368;51.436;6.774;2023-03-15T13:54:58;5.20;;;1.40;;
20417;SDS011;10368;51.436;6.774;2023-03-15T13:57:26;2.17;;;1.03;;
20417;SDS011;10368;51.436;6.774;2023-03-15T13:59:56;1.93;;;1.00;;
20417;SDS011;10368;51.436;6.774;2023-03-15T14:04:58;3.63;;;1.27;;
20417;SDS011;10368;51.436;6.774;2023-03-15T14:07:32;3.40;;;1.63;;
20417;SDS011;10368;51.436;6.774;2023-03-15T14:12:34;2.97;;;1.20;;
20417;SDS011;10368;51.436;6.774;2023-03-15T14:15:01;6.18;;;1.58;;
20417;SDS011;10368;51.436;6.774;2023-03-15T14:17:29;2.35;;;1.10;;
20417;SDS011;10368;51.436;6.774;2023-03-15T14:20:04;4.35;;;1.10;;
20417;SDS011;10368;51.436;6.774;2023-03-15T14:22:34;2.13;;;1.40;;
20417;SDS011;10368;51.436;6.774;2023-03-15T14:25:02;4.78;;;1.38;;
20417;SDS011;10368;51.436;6.774;2023-03-15T14:27:30;2.58;;;1.35;;
20417;SDS011;10368;51.436;6.774;2023-03-15T14:29:58;2.17;;;0.90;;
20417;SDS011;10368;51.436;6.774;2023-03-15T14:35:04;1.75;;;1.02;;
20417;SDS011;10368;51.436;6.774;2023-03-15T14:37:41;3.22;;;1.45;;
20417;SDS011;10368;51.436;6.774;2023-03-15T14:42:46;2.75;;;1.08;;
20417;SDS011;10368;51.436;6.774;2023-03-15T14:45:14;4.70;;;2.22;;
20417;SDS011;10368;51.436;6.774;2023-03-15T14:47:47;4.00;;;1.25;;
20417;SDS011;10368;51.436;6.774;2023-03-15T14:50:23;4.68;;;1.63;;
20417;SDS011;10368;51.436;6.774;2023-03-15T14:52:51;3.70;;;1.60;;
20417;SDS011;10368;51.436;6.774;2023-03-15T14:55:20;3.58;;;1.67;;
20417;SDS011;10368;51.436;6.774;2023-03-15T14:57:48;2.45;;;1.27;;
20417;SDS011;10368;51.436;6.774;2023-03-15T15:00:16;2.35;;;1.33;;
20417;SDS011;10368;51.436;6.774;2023-03-15T15:02:49;2.17;;;1.35;;
20417;SDS011;10368;51.436;6.774;2023-03-15T15:05:19;3.88;;;1.52;;
20417;SDS011;10368;51.436;6.774;2023-03-15T15:07:47;5.15;;;1.67;;
20417;SDS011;10368;51.436;6.774;2023-03-15T15:10:15;2.38;;;1.40;;
20417;SDS011;10368;51.436;6.774;2023-03-15T15:12:42;2.53;;;1.17;;
20417;SDS011;10368;51.436;6.774;2023-03-15T15:15:17;2.67;;;1.10;;
20417;SDS011;10368;51.436;6.774;2023-03-15T15:17:45;2.45;;;1.27;;
20417;SDS011;10368;51.436;6.774;2023-03-15T15:20:13;3.30;;;1.13;;
20417;SDS011;10368;51.436;6.774;2023-03-15T15:22:41;3.10;;;1.30;;
20417;SDS011;10368;51.436;6.774;2023-03-15T15:25:12;2.85;;;1.20;;
20417;SDS011;10368;51.436;6.774;2023-03-15T15:27:40;3.40;;;1.83;;
20417;SDS011;10368;51.436;6.774;2023-03-15T15:30:18;2.42;;;1.27;;
20417;SDS011;10368;51.436;6.774;2023-03-15T15:32:45;2.20;;;1.45;;
20417;SDS011;10368;51.436;6.774;2023-03-15T15:35:13;4.75;;;2.00;;
20417;SDS011;10368;51.436;6.774;2023-03-15T15:37:42;3.33;;;1.10;;
20417;SDS011;10368;51.436;6.774;2023-03-15T15:40:13;2.00;;;1.13;;
20417;SDS011;10368;51.436;6.774;2023-03-15T15:42:41;3.88;;;2.13;;
20417;SDS011;10368;51.436;6.774;2023-03-15T15:45:11;3.73;;;1.10;;
20417;SDS011;10368;51.436;6.774;2023-03-15T15:47:39;1.70;;;1.20;;
20417;SDS011;10368;51.436;6.774;2023-03-15T15:50:07;2.93;;;1.50;;
20417;SDS011;10368;51.436;6.774;2023-03-15T15:52:40;3.10;;;1.17;;
20417;SDS011;10368;51.436;6.774;2023-03-15T15:55:14;5.57;;;1.40;;
20417;SDS011;10368;51.436;6.774;2023-03-15T15:57:43;6.83;;;2.57;;
20417;SDS011;10368;51.436;6.774;2023-03-15T16:00:16;2.20;;;1.00;;
20417;SDS011;10368;51.436;6.774;2023-03-15T16:02:44;3.30;;;1.63;;
20417;SDS011;10368;51.436;6.774;2023-03-15T16:05:12;4.80;;;1.77;;
20417;SDS011;10368;51.436;6.774;2023-03-15T16:07:40;5.70;;;1.40;;
20417;SDS011;10368;51.436;6.774;2023-03-15T16:10:14;3.50;;;1.80;;
20417;SDS011;10368;51.436;6.774;2023-03-15T16:12:42;2.40;;;1.20;;